sensor_id;sensor_type;location;lat;lon;timestamp;temperature;humidity
9057;DHT22;4563;54.756;9.400;2023-04-09T00:00:43;10.40;61.60
9057;DHT22;4563;54.756;9.400;2023-04-09T00:03:10;10.40;61.60
9057;DHT22;4563;54.756;9.400;2023-04-09T00:05:38;10.30;61.60
9057;DHT22;4563;54.756;9.400;2023-04-09T00:08:06;10.30;61.70
9057;DHT22;4563;54.756;9.400;2023-04-09T00:10:34;10.30;61.80
9057;DHT22;4563;54.756;9.400;2023-04-09T00:13:03;10.30;61.80
9057;DHT22;4563;54.756;9.400;2023-04-09T00:15:29;10.20;61.80
9057;DHT22;4563;54.756;9.400;2023-04-09T00:17:56;10.20;61.80
9057;DHT22;4563;54.756;9.400;2023-04-09T00:20:23;10.20;61.90
9057;DHT22;4563;54.756;9.400;2023-04-09T00:22:50;10.20;62.00
9057;DHT22;4563;54.756;9.400;2023-04-09T00:25:18;10.20;62.00
9057;DHT22;4563;54.756;9.400;2023-04-09T00:27:45;10.20;62.20
9057;DHT22;4563;54.756;9.400;2023-04-09T00:30:12;10.10;62.20
9057;DHT22;4563;54.756;9.400;2023-04-09T00:32:39;10.10;62.40
9057;DHT22;4563;54.756;9.400;2023-04-09T00:35:06;10.10;62.50
9057;DHT22;4563;54.756;9.400;2023-04-09T00:37:33;10.10;62.60
9057;DHT22;4563;54.756;9.400;2023-04-09T00:40:00;10.10;62.70
9057;DHT22;4563;54.756;9.400;2023-04-09T00:42:30;10.00;62.80
9057;DHT22;4563;54.756;9.400;2023-04-09T00:44:57;10.00;62.90
9057;DHT22;4563;54.756;9.400;2023-04-09T00:47:24;10.00;62.80
9057;DHT22;4563;54.756;9.400;2023-04-09T00:49:51;10.00;62.90
9057;DHT22;4563;54.756;9.400;2023-04-09T00:52:18;10.00;63.00
9057;DHT22;4563;54.756;9.400;2023-04-09T00:54:45;9.90;64.20
9057;DHT22;4563;54.756;9.400;2023-04-09T00:57:13;9.90;64.20
9057;DHT22;4563;54.756;9.400;2023-04-09T00:59:41;9.90;64.30
9057;DHT22;4563;54.756;9.400;2023-04-09T01:02:08;9.90;64.30
9057;DHT22;4563;54.756;9.400;2023-04-09T01:04:36;9.90;64.40
9057;DHT22;4563;54.756;9.400;2023-04-09T01:07:08;9.80;64.40
9057;DHT22;4563;54.756;9.400;2023-04-09T01:09:41;9.80;64.50
9057;DHT22;4563;54.756;9.400;2023-04-09T01:12:13;9.80;64.60
9057;DHT22;4563;54.756;9.400;2023-04-09T01:14:51;9.80;64.70
9057;DHT22;4563;54.756;9.400;2023-04-09T01:17:23;9.80;64.70
9057;DHT22;4563;54.756;9.400;2023-04-09T01:19:56;9.70;64.60
9057;DHT22;4563;54.756;9.400;2023-04-09T01:22:31;9.70;64.60
9057;DHT22;4563;54.756;9.400;2023-04-09T01:25:08;9.70;64.70
9057;DHT22;4563;54.756;9.400;2023-04-09T01:28:07;9.70;64.70
9057;DHT22;4563;54.756;9.400;2023-04-09T01:30:35;9.60;64.70
9057;DHT22;4563;54.756;9.400;2023-04-09T01:33:02;9.60;64.60
9057;DHT22;4563;54.756;9.400;2023-04-09T01:35:30;9.60;64.70
9057;DHT22;4563;54.756;9.400;2023-04-09T01:37:57;9.60;64.70
9057;DHT22;4563;54.756;9.400;2023-04-09T01:40:24;9.60;64.70
9057;DHT22;4563;54.756;9.400;2023-04-09T01:42:52;9.60;64.80
9057;DHT22;4563;54.756;9.400;2023-04-09T01:45:21;9.50;64.80
9057;DHT22;4563;54.756;9.400;2023-04-09T01:47:48;9.50;65.60
9057;DHT22;4563;54.756;9.400;2023-04-09T01:50:15;9.50;64.80
9057;DHT22;4563;54.756;9.400;2023-04-09T01:52:43;9.50;64.80
9057;DHT22;4563;54.756;9.400;2023-04-09T01:55:09;9.50;64.90
9057;DHT22;4563;54.756;9.400;2023-04-09T01:57:36;9.50;64.90
9057;DHT22;4563;54.756;9.400;2023-04-09T02:00:04;9.50;64.90
9057;DHT22;4563;54.756;9.400;2023-04-09T02:02:37;9.40;64.90
9057;DHT22;4563;54.756;9.400;2023-04-09T02:05:09;9.40;65.00
9057;DHT22;4563;54.756;9.400;2023-04-09T02:07:39;9.40;65.00
9057;DHT22;4563;54.756;9.400;2023-04-09T02:10:09;9.40;65.00
9057;DHT22;4563;54.756;9.400;2023-04-09T02:12:39;9.40;65.00
9057;DHT22;4563;54.756;9.400;2023-04-09T02:15:08;9.40;65.00
9057;DHT22;4563;54.756;9.400;2023-04-09T02:17:37;9.40;65.00
9057;DHT22;4563;54.756;9.400;2023-04-09T02:20:05;9.40;65.00
9057;DHT22;4563;54.756;9.400;2023-04-09T02:22:32;9.30;64.90
9057;DHT22;4563;54.756;9.400;2023-04-09T02:25:02;9.30;64.90
9057;DHT22;4563;54.756;9.400;2023-04-09T02:27:29;9.30;64.90
9057;DHT22;4563;54.756;9.400;2023-04-09T02:29:55;9.30;65.00
9057;DHT22;4563;54.756;9.400;2023-04-09T02:32:22;9.30;65.00
9057;DHT22;4563;54.756;9.400;2023-04-09T02:34:50;9.30;65.10
9057;DHT22;4563;54.756;9.400;2023-04-09T02:37:17;9.20;65.00
9057;DHT22;4563;54.756;9.400;2023-04-09T02:39:44;9.30;65.20
9057;DHT22;4563;54.756;9.400;2023-04-09T02:42:10;9.20;65.10
9057;DHT22;4563;54.756;9.400;2023-04-09T02:44:37;9.20;65.20
9057;DHT22;4563;54.756;9.400;2023-04-09T02:47:04;9.20;65.20
9057;DHT22;4563;54.756;9.400;2023-04-09T02:49:31;9.20;65.20
9057;DHT22;4563;54.756;9.400;2023-04-09T02:51:59;9.20;65.30
9057;DHT22;4563;54.756;9.400;2023-04-09T02:54:26;9.10;65.30
9057;DHT22;4563;54.756;9.400;2023-04-09T02:56:52;9.10;65.30
9057;DHT22;4563;54.756;9.400;2023-04-09T02:59:19;9.10;65.30
9057;DHT22;4563;54.756;9.400;2023-04-09T03:01:46;9.10;65.40
9057;DHT22;4563;54.756;9.400;2023-04-09T03:04:13;9.10;66.20
9057;DHT22;4563;54.756;9.400;2023-04-09T03:06:39;9.10;65.60
9057;DHT22;4563;54.756;9.400;2023-04-09T03:09:07;9.00;65.50
9057;DHT22;4563;54.756;9.400;2023-04-09T03:11:34;9.10;65.60
9057;DHT22;4563;54.756;9.400;2023-04-09T03:14:01;9.00;65.50
9057;DHT22;4563;54.756;9.400;2023-04-09T03:16:28;9.00;65.50
9057;DHT22;4563;54.756;9.400;2023-04-09T03:18:55;9.00;65.60
9057;DHT22;4563;54.756;9.400;2023-04-09T03:21:21;9.00;65.50
9057;DHT22;4563;54.756;9.400;2023-04-09T03:23:48;9.00;65.80
9057;DHT22;4563;54.756;9.400;2023-04-09T03:26:16;9.00;65.50
9057;DHT22;4563;54.756;9.400;2023-04-09T03:28:43;9.00;65.60
9057;DHT22;4563;54.756;9.400;2023-04-09T03:31:10;9.00;65.50
9057;DHT22;4563;54.756;9.400;2023-04-09T03:33:38;8.90;65.40
9057;DHT22;4563;54.756;9.400;2023-04-09T03:36:05;8.90;65.50
9057;DHT22;4563;54.756;9.400;2023-04-09T03:38:32;8.90;65.40
9057;DHT22;4563;54.756;9.400;2023-04-09T03:40:58;8.90;65.50
9057;DHT22;4563;54.756;9.400;2023-04-09T03:43:26;8.90;65.50
9057;DHT22;4563;54.756;9.400;2023-04-09T03:45:53;8.80;65.40
9057;DHT22;4563;54.756;9.400;2023-04-09T03:48:20;8.80;65.40
9057;DHT22;4563;54.756;9.400;2023-04-09T03:50:49;8.80;65.40
9057;DHT22;4563;54.756;9.400;2023-04-09T03:53:18;8.80;65.40
9057;DHT22;4563;54.756;9.400;2023-04-09T03:55:44;8.80;65.40
9057;DHT22;4563;54.756;9.400;2023-04-09T03:58:11;8.80;65.40
9057;DHT22;4563;54.756;9.400;2023-04-09T04:00:39;8.70;65.40
9057;DHT22;4563;54.756;9.400;2023-04-09T04:03:07;8.70;65.30
9057;DHT22;4563;54.756;9.400;2023-04-09T04:05:34;8.70;65.40
9057;DHT22;4563;54.756;9.400;2023-04-09T04:08:01;8.70;65.30
9057;DHT22;4563;54.756;9.400;2023-04-09T04:10:27;8.70;65.30
9057;DHT22;4563;54.756;9.400;2023-04-09T04:12:54;8.60;65.20
9057;DHT22;4563;54.756;9.400;2023-04-09T04:15:21;8.60;65.20
9057;DHT22;4563;54.756;9.400;2023-04-09T04:17:49;8.60;65.20
9057;DHT22;4563;54.756;9.400;2023-04-09T04:20:16;8.60;65.20
9057;DHT22;4563;54.756;9.400;2023-04-09T04:22:43;8.50;65.10
9057;DHT22;4563;54.756;9.400;2023-04-09T04:25:10;8.50;65.10
9057;DHT22;4563;54.756;9.400;2023-04-09T04:27:37;8.50;65.10
9057;DHT22;4563;54.756;9.400;2023-04-09T04:30:07;8.50;65.20
9057;DHT22;4563;54.756;9.400;2023-04-09T04:32:34;8.40;65.10
9057;DHT22;4563;54.756;9.400;2023-04-09T04:35:03;8.40;65.00
9057;DHT22;4563;54.756;9.400;2023-04-09T04:37:29;8.40;65.00
9057;DHT22;4563;54.756;9.400;2023-04-09T04:39:56;8.30;65.00
9057;DHT22;4563;54.756;9.400;2023-04-09T04:42:23;8.30;64.90
9057;DHT22;4563;54.756;9.400;2023-04-09T04:44:50;8.30;64.90
9057;DHT22;4563;54.756;9.400;2023-04-09T04:47:16;8.30;65.00
9057;DHT22;4563;54.756;9.400;2023-04-09T04:49:44;8.30;65.00
9057;DHT22;4563;54.756;9.400;2023-04-09T04:52:12;8.30;65.10
9057;DHT22;4563;54.756;9.400;2023-04-09T04:54:39;8.30;65.10
9057;DHT22;4563;54.756;9.400;2023-04-09T04:57:07;8.20;65.10
9057;DHT22;4563;54.756;9.400;2023-04-09T04:59:39;8.20;65.20
9057;DHT22;4563;54.756;9.400;2023-04-09T05:02:05;8.20;65.20
9057;DHT22;4563;54.756;9.400;2023-04-09T05:04:35;8.20;65.20
9057;DHT22;4563;54.756;9.400;2023-04-09T05:07:02;8.10;65.20
9057;DHT22;4563;54.756;9.400;2023-04-09T05:09:30;8.10;65.30
9057;DHT22;4563;54.756;9.400;2023-04-09T05:11:56;8.10;65.40
9057;DHT22;4563;54.756;9.400;2023-04-09T05:14:23;8.10;65.60
9057;DHT22;4563;54.756;9.400;2023-04-09T05:16:50;8.00;65.70
9057;DHT22;4563;54.756;9.400;2023-04-09T05:19:17;8.10;66.00
9057;DHT22;4563;54.756;9.400;2023-04-09T05:21:44;8.00;66.10
9057;DHT22;4563;54.756;9.400;2023-04-09T05:24:12;8.10;66.40
9057;DHT22;4563;54.756;9.400;2023-04-09T05:26:41;8.10;66.60
9057;DHT22;4563;54.756;9.400;2023-04-09T05:29:10;8.00;66.60
9057;DHT22;4563;54.756;9.400;2023-04-09T05:31:36;8.00;66.80
9057;DHT22;4563;54.756;9.400;2023-04-09T05:34:04;8.10;67.00
9057;DHT22;4563;54.756;9.400;2023-04-09T05:36:31;8.00;67.00
9057;DHT22;4563;54.756;9.400;2023-04-09T05:38:58;8.10;67.30
9057;DHT22;4563;54.756;9.400;2023-04-09T05:41:25;8.10;67.30
9057;DHT22;4563;54.756;9.400;2023-04-09T05:43:53;8.10;67.30
9057;DHT22;4563;54.756;9.400;2023-04-09T05:46:20;8.10;67.40
9057;DHT22;4563;54.756;9.400;2023-04-09T05:48:46;8.10;67.40
9057;DHT22;4563;54.756;9.400;2023-04-09T05:51:16;8.10;67.60
9057;DHT22;4563;54.756;9.400;2023-04-09T05:53:43;8.10;67.70
9057;DHT22;4563;54.756;9.400;2023-04-09T05:56:13;8.10;67.80
9057;DHT22;4563;54.756;9.400;2023-04-09T05:58:41;8.10;67.90
9057;DHT22;4563;54.756;9.400;2023-04-09T06:01:09;8.20;68.10
9057;DHT22;4563;54.756;9.400;2023-04-09T06:03:36;8.20;68.90
9057;DHT22;4563;54.756;9.400;2023-04-09T06:06:03;8.20;68.30
9057;DHT22;4563;54.756;9.400;2023-04-09T06:08:30;8.20;68.40
9057;DHT22;4563;54.756;9.400;2023-04-09T06:10:57;8.20;68.50
9057;DHT22;4563;54.756;9.400;2023-04-09T06:13:24;8.20;68.70
9057;DHT22;4563;54.756;9.400;2023-04-09T06:15:51;8.20;68.70
9057;DHT22;4563;54.756;9.400;2023-04-09T06:18:19;8.30;68.90
9057;DHT22;4563;54.756;9.400;2023-04-09T06:20:46;8.30;68.90
9057;DHT22;4563;54.756;9.400;2023-04-09T06:23:13;8.30;69.00
9057;DHT22;4563;54.756;9.400;2023-04-09T06:25:40;8.30;69.10
9057;DHT22;4563;54.756;9.400;2023-04-09T06:28:06;8.30;69.10
9057;DHT22;4563;54.756;9.400;2023-04-09T06:30:33;8.40;69.30
9057;DHT22;4563;54.756;9.400;2023-04-09T06:33:01;8.40;69.30
9057;DHT22;4563;54.756;9.400;2023-04-09T06:35:29;8.40;69.40
9057;DHT22;4563;54.756;9.400;2023-04-09T06:37:58;8.40;69.40
9057;DHT22;4563;54.756;9.400;2023-04-09T06:40:25;8.40;69.50
9057;DHT22;4563;54.756;9.400;2023-04-09T06:42:52;8.40;69.60
9057;DHT22;4563;54.756;9.400;2023-04-09T06:45:19;8.50;69.80
9057;DHT22;4563;54.756;9.400;2023-04-09T06:47:46;8.40;69.90
9057;DHT22;4563;54.756;9.400;2023-04-09T06:50:12;8.50;70.10
9057;DHT22;4563;54.756;9.400;2023-04-09T06:52:41;8.50;70.20
9057;DHT22;4563;54.756;9.400;2023-04-09T06:55:08;8.50;70.30
9057;DHT22;4563;54.756;9.400;2023-04-09T06:57:35;8.60;70.40
9057;DHT22;4563;54.756;9.400;2023-04-09T07:00:04;8.60;70.40
9057;DHT22;4563;54.756;9.400;2023-04-09T07:02:31;8.60;70.50
9057;DHT22;4563;54.756;9.400;2023-04-09T07:04:58;8.70;70.80
9057;DHT22;4563;54.756;9.400;2023-04-09T07:07:25;8.70;71.00
9057;DHT22;4563;54.756;9.400;2023-04-09T07:09:53;8.70;71.00
9057;DHT22;4563;54.756;9.400;2023-04-09T07:12:25;8.70;71.20
9057;DHT22;4563;54.756;9.400;2023-04-09T07:14:55;8.80;71.40
9057;DHT22;4563;54.756;9.400;2023-04-09T07:17:22;8.80;71.50
9057;DHT22;4563;54.756;9.400;2023-04-09T07:19:49;8.90;71.70
9057;DHT22;4563;54.756;9.400;2023-04-09T07:22:17;8.90;71.80
9057;DHT22;4563;54.756;9.400;2023-04-09T07:24:43;8.90;71.90
9057;DHT22;4563;54.756;9.400;2023-04-09T07:27:12;9.00;72.10
9057;DHT22;4563;54.756;9.400;2023-04-09T07:29:43;9.10;72.20
9057;DHT22;4563;54.756;9.400;2023-04-09T07:32:10;9.10;72.20
9057;DHT22;4563;54.756;9.400;2023-04-09T07:34:36;9.20;72.30
9057;DHT22;4563;54.756;9.400;2023-04-09T07:37:03;9.20;72.40
9057;DHT22;4563;54.756;9.400;2023-04-09T07:39:31;9.20;72.30
9057;DHT22;4563;54.756;9.400;2023-04-09T07:42:00;9.30;72.50
9057;DHT22;4563;54.756;9.400;2023-04-09T07:44:28;9.30;72.50
9057;DHT22;4563;54.756;9.400;2023-04-09T07:46:55;9.40;72.50
9057;DHT22;4563;54.756;9.400;2023-04-09T07:49:22;9.40;72.30
9057;DHT22;4563;54.756;9.400;2023-04-09T07:51:49;9.50;72.30
9057;DHT22;4563;54.756;9.400;2023-04-09T07:54:16;9.50;72.20
9057;DHT22;4563;54.756;9.400;2023-04-09T07:56:44;9.50;72.10
9057;DHT22;4563;54.756;9.400;2023-04-09T07:59:11;9.50;72.00
9057;DHT22;4563;54.756;9.400;2023-04-09T08:01:41;9.60;72.00
9057;DHT22;4563;54.756;9.400;2023-04-09T08:04:08;9.60;72.00
9057;DHT22;4563;54.756;9.400;2023-04-09T08:06:35;9.60;72.00
9057;DHT22;4563;54.756;9.400;2023-04-09T08:09:02;9.70;72.10
9057;DHT22;4563;54.756;9.400;2023-04-09T08:11:29;9.70;72.10
9057;DHT22;4563;54.756;9.400;2023-04-09T08:13:55;9.70;72.10
9057;DHT22;4563;54.756;9.400;2023-04-09T08:16:22;9.70;72.00
9057;DHT22;4563;54.756;9.400;2023-04-09T08:18:51;9.80;72.10
9057;DHT22;4563;54.756;9.400;2023-04-09T08:21:18;9.80;72.10
9057;DHT22;4563;54.756;9.400;2023-04-09T08:23:46;9.80;72.10
9057;DHT22;4563;54.756;9.400;2023-04-09T08:26:13;9.90;72.20
9057;DHT22;4563;54.756;9.400;2023-04-09T08:28:39;9.90;72.10
9057;DHT22;4563;54.756;9.400;2023-04-09T08:31:08;9.90;72.00
9057;DHT22;4563;54.756;9.400;2023-04-09T08:33:34;10.00;71.00
9057;DHT22;4563;54.756;9.400;2023-04-09T08:36:07;10.00;70.80
9057;DHT22;4563;54.756;9.400;2023-04-09T08:38:34;10.10;71.00
9057;DHT22;4563;54.756;9.400;2023-04-09T08:41:00;10.10;70.90
9057;DHT22;4563;54.756;9.400;2023-04-09T08:43:27;10.10;70.90
9057;DHT22;4563;54.756;9.400;2023-04-09T08:46:00;10.20;70.90
9057;DHT22;4563;54.756;9.400;2023-04-09T08:48:27;10.20;70.90
9057;DHT22;4563;54.756;9.400;2023-04-09T08:50:54;10.20;70.90
9057;DHT22;4563;54.756;9.400;2023-04-09T08:53:23;10.30;71.00
9057;DHT22;4563;54.756;9.400;2023-04-09T08:55:51;10.30;71.00
9057;DHT22;4563;54.756;9.400;2023-04-09T08:58:18;10.30;71.00
9057;DHT22;4563;54.756;9.400;2023-04-09T09:00:45;10.40;71.10
9057;DHT22;4563;54.756;9.400;2023-04-09T09:03:12;10.40;71.10
9057;DHT22;4563;54.756;9.400;2023-04-09T09:05:40;10.40;71.10
9057;DHT22;4563;54.756;9.400;2023-04-09T09:08:08;10.50;71.20
9057;DHT22;4563;54.756;9.400;2023-04-09T09:10:49;10.60;71.40
9057;DHT22;4563;54.756;9.400;2023-04-09T09:13:18;10.60;71.40
9057;DHT22;4563;54.756;9.400;2023-04-09T09:15:45;10.70;71.50
9057;DHT22;4563;54.756;9.400;2023-04-09T09:18:15;10.70;71.40
9057;DHT22;4563;54.756;9.400;2023-04-09T09:20:42;10.80;71.50
9057;DHT22;4563;54.756;9.400;2023-04-09T09:23:09;10.90;71.30
9057;DHT22;4563;54.756;9.400;2023-04-09T09:25:40;10.90;71.10
9057;DHT22;4563;54.756;9.400;2023-04-09T09:28:09;11.00;71.00
9057;DHT22;4563;54.756;9.400;2023-04-09T09:30:36;11.10;71.10
9057;DHT22;4563;54.756;9.400;2023-04-09T09:33:05;11.20;71.00
9057;DHT22;4563;54.756;9.400;2023-04-09T09:35:46;11.30;71.00
9057;DHT22;4563;54.756;9.400;2023-04-09T09:38:14;11.40;71.60
9057;DHT22;4563;54.756;9.400;2023-04-09T09:40:43;11.40;70.80
9057;DHT22;4563;54.756;9.400;2023-04-09T09:43:10;11.60;70.80
9057;DHT22;4563;54.756;9.400;2023-04-09T09:45:37;11.70;70.80
9057;DHT22;4563;54.756;9.400;2023-04-09T09:48:05;11.80;70.80
9057;DHT22;4563;54.756;9.400;2023-04-09T09:50:34;11.90;70.80
9057;DHT22;4563;54.756;9.400;2023-04-09T09:53:03;12.00;70.90
9057;DHT22;4563;54.756;9.400;2023-04-09T09:55:31;12.20;71.30
9057;DHT22;4563;54.756;9.400;2023-04-09T09:58:01;12.30;71.40
9057;DHT22;4563;54.756;9.400;2023-04-09T10:00:31;12.40;71.40
9057;DHT22;4563;54.756;9.400;2023-04-09T10:03:02;12.60;71.40
9057;DHT22;4563;54.756;9.400;2023-04-09T10:05:31;12.80;71.60
9057;DHT22;4563;54.756;9.400;2023-04-09T10:07:59;13.00;71.50
9057;DHT22;4563;54.756;9.400;2023-04-09T10:10:30;13.20;72.30
9057;DHT22;4563;54.756;9.400;2023-04-09T10:12:57;13.40;71.70
9057;DHT22;4563;54.756;9.400;2023-04-09T10:15:27;13.60;71.80
9057;DHT22;4563;54.756;9.400;2023-04-09T10:17:54;13.90;72.20
9057;DHT22;4563;54.756;9.400;2023-04-09T10:20:25;14.10;71.50
9057;DHT22;4563;54.756;9.400;2023-04-09T10:22:53;14.40;71.60
9057;DHT22;4563;54.756;9.400;2023-04-09T10:25:21;14.70;71.20
9057;DHT22;4563;54.756;9.400;2023-04-09T10:27:58;14.90;71.40
9057;DHT22;4563;54.756;9.400;2023-04-09T10:30:33;15.30;71.10
9057;DHT22;4563;54.756;9.400;2023-04-09T10:33:20;15.60;70.60
9057;DHT22;4563;54.756;9.400;2023-04-09T10:35:53;15.90;71.20
9057;DHT22;4563;54.756;9.400;2023-04-09T10:38:33;16.20;68.60
9057;DHT22;4563;54.756;9.400;2023-04-09T10:41:06;16.60;69.40
9057;DHT22;4563;54.756;9.400;2023-04-09T10:43:34;16.90;67.50
9057;DHT22;4563;54.756;9.400;2023-04-09T10:46:06;17.20;66.40
9057;DHT22;4563;54.756;9.400;2023-04-09T10:48:33;17.50;66.20
9057;DHT22;4563;54.756;9.400;2023-04-09T10:51:01;17.80;64.20
9057;DHT22;4563;54.756;9.400;2023-04-09T10:53:31;18.10;63.20
9057;DHT22;4563;54.756;9.400;2023-04-09T10:55:58;18.40;62.20
9057;DHT22;4563;54.756;9.400;2023-04-09T10:58:28;18.70;60.80
9057;DHT22;4563;54.756;9.400;2023-04-09T11:01:00;19.00;60.00
9057;DHT22;4563;54.756;9.400;2023-04-09T11:03:28;19.30;59.90
9057;DHT22;4563;54.756;9.400;2023-04-09T11:05:59;19.50;57.70
9057;DHT22;4563;54.756;9.400;2023-04-09T11:08:28;19.90;57.40
9057;DHT22;4563;54.756;9.400;2023-04-09T11:10:55;20.10;55.60
9057;DHT22;4563;54.756;9.400;2023-04-09T11:13:25;20.40;54.40
9057;DHT22;4563;54.756;9.400;2023-04-09T11:15:53;20.60;53.40
9057;DHT22;4563;54.756;9.400;2023-04-09T11:18:22;20.90;52.40
9057;DHT22;4563;54.756;9.400;2023-04-09T11:20:53;21.20;52.20
9057;DHT22;4563;54.756;9.400;2023-04-09T11:23:20;21.40;53.70
9057;DHT22;4563;54.756;9.400;2023-04-09T11:25:48;21.60;51.40
9057;DHT22;4563;54.756;9.400;2023-04-09T11:28:15;21.80;51.20
9057;DHT22;4563;54.756;9.400;2023-04-09T11:30:42;22.00;50.60
9057;DHT22;4563;54.756;9.400;2023-04-09T11:33:11;22.30;49.90
9057;DHT22;4563;54.756;9.400;2023-04-09T11:35:38;22.50;49.30
9057;DHT22;4563;54.756;9.400;2023-04-09T11:38:07;22.70;48.80
9057;DHT22;4563;54.756;9.400;2023-04-09T11:40:34;22.90;49.10
9057;DHT22;4563;54.756;9.400;2023-04-09T11:43:01;23.10;48.20
9057;DHT22;4563;54.756;9.400;2023-04-09T11:45:29;23.30;47.80
9057;DHT22;4563;54.756;9.400;2023-04-09T11:47:56;23.50;47.60
9057;DHT22;4563;54.756;9.400;2023-04-09T11:50:23;23.70;47.20
9057;DHT22;4563;54.756;9.400;2023-04-09T11:52:53;23.80;46.60
9057;DHT22;4563;54.756;9.400;2023-04-09T11:55:25;24.00;46.40
9057;DHT22;4563;54.756;9.400;2023-04-09T11:57:55;24.20;48.10
9057;DHT22;4563;54.756;9.400;2023-04-09T12:00:23;24.30;46.40
9057;DHT22;4563;54.756;9.400;2023-04-09T12:02:58;24.50;45.80
9057;DHT22;4563;54.756;9.400;2023-04-09T12:05:28;24.70;48.30
9057;DHT22;4563;54.756;9.400;2023-04-09T12:07:57;24.80;46.10
9057;DHT22;4563;54.756;9.400;2023-04-09T12:10:27;25.00;45.70
9057;DHT22;4563;54.756;9.400;2023-04-09T12:12:59;25.00;45.90
9057;DHT22;4563;54.756;9.400;2023-04-09T12:15:30;25.20;44.30
9057;DHT22;4563;54.756;9.400;2023-04-09T12:17:57;25.20;44.90
9057;DHT22;4563;54.756;9.400;2023-04-09T12:20:29;25.30;43.40
9057;DHT22;4563;54.756;9.400;2023-04-09T12:22:56;25.40;45.10
9057;DHT22;4563;54.756;9.400;2023-04-09T12:25:24;25.50;42.90
9057;DHT22;4563;54.756;9.400;2023-04-09T12:27:53;25.60;42.60
9057;DHT22;4563;54.756;9.400;2023-04-09T12:30:20;25.70;42.80
9057;DHT22;4563;54.756;9.400;2023-04-09T12:32:47;25.80;42.00
9057;DHT22;4563;54.756;9.400;2023-04-09T12:35:15;25.80;41.60
9057;DHT22;4563;54.756;9.400;2023-04-09T12:37:42;25.90;41.40
9057;DHT22;4563;54.756;9.400;2023-04-09T12:40:10;26.00;41.40
9057;DHT22;4563;54.756;9.400;2023-04-09T12:42:38;26.10;42.10
9057;DHT22;4563;54.756;9.400;2023-04-09T12:45:08;26.20;41.60
9057;DHT22;4563;54.756;9.400;2023-04-09T12:47:35;26.20;42.00
9057;DHT22;4563;54.756;9.400;2023-04-09T12:50:06;26.30;41.10
9057;DHT22;4563;54.756;9.400;2023-04-09T12:52:33;26.30;40.80
9057;DHT22;4563;54.756;9.400;2023-04-09T12:55:00;26.40;40.50
9057;DHT22;4563;54.756;9.400;2023-04-09T12:57:27;26.50;40.70
9057;DHT22;4563;54.756;9.400;2023-04-09T12:59:57;26.50;40.10
9057;DHT22;4563;54.756;9.400;2023-04-09T13:02:28;26.60;40.60
9057;DHT22;4563;54.756;9.400;2023-04-09T13:04:54;26.60;44.40
9057;DHT22;4563;54.756;9.400;2023-04-09T13:07:21;26.70;45.60
9057;DHT22;4563;54.756;9.400;2023-04-09T13:09:50;26.80;46.10
9057;DHT22;4563;54.756;9.400;2023-04-09T13:12:17;26.80;46.50
9057;DHT22;4563;54.756;9.400;2023-04-09T13:14:46;26.90;47.00
9057;DHT22;4563;54.756;9.400;2023-04-09T13:17:13;26.90;47.10
9057;DHT22;4563;54.756;9.400;2023-04-09T13:19:42;27.00;46.90
9057;DHT22;4563;54.756;9.400;2023-04-09T13:22:08;27.10;47.30
9057;DHT22;4563;54.756;9.400;2023-04-09T13:24:35;27.20;47.40
9057;DHT22;4563;54.756;9.400;2023-04-09T13:27:03;27.20;47.30
9057;DHT22;4563;54.756;9.400;2023-04-09T13:29:30;27.30;47.40
9057;DHT22;4563;54.756;9.400;2023-04-09T13:31:57;27.30;47.60
9057;DHT22;4563;54.756;9.400;2023-04-09T13:34:26;27.30;47.40
9057;DHT22;4563;54.756;9.400;2023-04-09T13:36:54;27.40;47.50
9057;DHT22;4563;54.756;9.400;2023-04-09T13:39:21;27.40;47.60
9057;DHT22;4563;54.756;9.400;2023-04-09T13:41:47;27.40;47.50
9057;DHT22;4563;54.756;9.400;2023-04-09T13:44:14;27.50;47.40
9057;DHT22;4563;54.756;9.400;2023-04-09T13:46:41;27.40;47.70
9057;DHT22;4563;54.756;9.400;2023-04-09T13:49:08;27.50;47.80
9057;DHT22;4563;54.756;9.400;2023-04-09T13:51:35;27.50;47.50
9057;DHT22;4563;54.756;9.400;2023-04-09T13:54:03;27.50;47.80
9057;DHT22;4563;54.756;9.400;2023-04-09T13:56:30;27.50;48.00
9057;DHT22;4563;54.756;9.400;2023-04-09T13:58:57;27.40;47.90
9057;DHT22;4563;54.756;9.400;2023-04-09T14:01:24;27.40;48.00
9057;DHT22;4563;54.756;9.400;2023-04-09T14:03:52;27.40;47.70
9057;DHT22;4563;54.756;9.400;2023-04-09T14:06:19;27.40;47.90
9057;DHT22;4563;54.756;9.400;2023-04-09T14:08:46;27.30;47.70
9057;DHT22;4563;54.756;9.400;2023-04-09T14:11:14;27.30;47.60
9057;DHT22;4563;54.756;9.400;2023-04-09T14:13:41;27.20;47.50
9057;DHT22;4563;54.756;9.400;2023-04-09T14:16:08;27.20;47.60
9057;DHT22;4563;54.756;9.400;2023-04-09T14:18:35;27.10;47.50
9057;DHT22;4563;54.756;9.400;2023-04-09T14:21:04;27.00;47.70
9057;DHT22;4563;54.756;9.400;2023-04-09T14:23:31;27.00;47.50
9057;DHT22;4563;54.756;9.400;2023-04-09T14:25:58;26.90;47.80
9057;DHT22;4563;54.756;9.400;2023-04-09T14:28:26;26.90;47.40
9057;DHT22;4563;54.756;9.400;2023-04-09T14:30:53;26.80;47.30
9057;DHT22;4563;54.756;9.400;2023-04-09T14:33:20;26.70;47.30
9057;DHT22;4563;54.756;9.400;2023-04-09T14:35:46;26.60;47.30
9057;DHT22;4563;54.756;9.400;2023-04-09T14:38:13;26.60;47.30
9057;DHT22;4563;54.756;9.400;2023-04-09T14:40:42;26.50;47.30
9057;DHT22;4563;54.756;9.400;2023-04-09T14:43:09;26.40;47.10
9057;DHT22;4563;54.756;9.400;2023-04-09T14:45:37;26.30;47.10
9057;DHT22;4563;54.756;9.400;2023-04-09T14:48:04;26.30;47.30
9057;DHT22;4563;54.756;9.400;2023-04-09T14:50:31;26.20;47.50
9057;DHT22;4563;54.756;9.400;2023-04-09T14:52:58;26.10;47.30
9057;DHT22;4563;54.756;9.400;2023-04-09T14:55:25;26.00;47.50
9057;DHT22;4563;54.756;9.400;2023-04-09T14:57:52;25.90;47.40
9057;DHT22;4563;54.756;9.400;2023-04-09T15:00:19;25.80;47.40
9057;DHT22;4563;54.756;9.400;2023-04-09T15:02:47;25.70;47.70
9057;DHT22;4563;54.756;9.400;2023-04-09T15:05:14;25.60;47.60
9057;DHT22;4563;54.756;9.400;2023-04-09T15:07:41;25.50;47.80
9057;DHT22;4563;54.756;9.400;2023-04-09T15:10:08;25.40;48.00
9057;DHT22;4563;54.756;9.400;2023-04-09T15:12:35;25.20;47.90
9057;DHT22;4563;54.756;9.400;2023-04-09T15:15:05;25.10;48.00
9057;DHT22;4563;54.756;9.400;2023-04-09T15:17:32;24.90;48.00
9057;DHT22;4563;54.756;9.400;2023-04-09T15:20:00;24.80;48.00
9057;DHT22;4563;54.756;9.400;2023-04-09T15:22:27;24.60;47.80
9057;DHT22;4563;54.756;9.400;2023-04-09T15:24:53;24.50;48.20
9057;DHT22;4563;54.756;9.400;2023-04-09T15:27:20;24.40;48.10
9057;DHT22;4563;54.756;9.400;2023-04-09T15:29:47;24.20;48.20
9057;DHT22;4563;54.756;9.400;2023-04-09T15:32:14;24.10;48.10
9057;DHT22;4563;54.756;9.400;2023-04-09T15:34:41;24.00;48.00
9057;DHT22;4563;54.756;9.400;2023-04-09T15:37:09;23.80;48.00
9057;DHT22;4563;54.756;9.400;2023-04-09T15:39:36;23.80;48.10
9057;DHT22;4563;54.756;9.400;2023-04-09T15:42:03;23.60;48.30
9057;DHT22;4563;54.756;9.400;2023-04-09T15:44:29;23.50;48.20
9057;DHT22;4563;54.756;9.400;2023-04-09T15:46:56;23.40;48.20
9057;DHT22;4563;54.756;9.400;2023-04-09T15:49:23;23.30;48.30
9057;DHT22;4563;54.756;9.400;2023-04-09T15:51:50;23.10;48.30
9057;DHT22;4563;54.756;9.400;2023-04-09T15:54:18;23.10;48.60
9057;DHT22;4563;54.756;9.400;2023-04-09T15:56:45;22.90;48.60
9057;DHT22;4563;54.756;9.400;2023-04-09T15:59:11;22.80;48.80
9057;DHT22;4563;54.756;9.400;2023-04-09T16:01:38;22.70;48.90
9057;DHT22;4563;54.756;9.400;2023-04-09T16:04:05;22.60;49.00
9057;DHT22;4563;54.756;9.400;2023-04-09T16:06:33;22.40;49.10
9057;DHT22;4563;54.756;9.400;2023-04-09T16:09:01;22.30;49.20
9057;DHT22;4563;54.756;9.400;2023-04-09T16:11:29;22.20;49.10
9057;DHT22;4563;54.756;9.400;2023-04-09T16:13:56;22.00;49.00